GEC8226 KJFK-MMMX
Flight info
| Callsign | GEC8226 |
|---|---|
| Flight time | N/A |
| Altitude | 30000 |
| Route | RBV Q430 COPES Q75 GVE DCT LYH DCT COLZI DCT AWYAT DCT IPTAY DCT CHOPZ DCT MGM DCT SJI DCT TBD/N0486F320 M575 KENGS M345 AXEXO UM345 PAZ UT154 ENAGA ENAGA3A |
| Aircraft | MD11/H-SDE2E3FGHIJ3J7M3P2RWXYZ/LB1D1 |
Departure
| Time | 2026-05-08 07:36 |
|---|---|
| Airport | John F. Kennedy International Airport (KJFK) |
Arrival
| Time | N/A |
|---|---|
| Airport | Mexico City Benito Juárez International Airport (MMMX) |
| Time | Latitude | Longitude | Altitude | Speed | Heading |
|---|---|---|---|---|---|
| 2026-05-08 07:04 | 40.65054 | -73.80181 | 23 ft | 0 kts | 219° |
| 2026-05-08 07:23 | 40.65072 | -73.80161 | 25 ft | 4 kts | 219° |
| 2026-05-08 07:24 | 40.65092 | -73.80140 | 27 ft | 4 kts | 209° |
| 2026-05-08 07:24 | 40.65112 | -73.80129 | 24 ft | 4 kts | 169° |
| 2026-05-08 07:24 | 40.65126 | -73.80134 | 26 ft | 4 kts | 110° |
| 2026-05-08 07:24 | 40.65129 | -73.80156 | 25 ft | 4 kts | 91° |
| 2026-05-08 07:25 | 40.65129 | -73.80182 | 25 ft | 0 kts | 91° |
| 2026-05-08 07:27 | 40.65129 | -73.80179 | 24 ft | 2 kts | 91° |
| 2026-05-08 07:28 | 40.65128 | -73.80146 | 24 ft | 5 kts | 91° |
| 2026-05-08 07:28 | 40.65128 | -73.80083 | 23 ft | 9 kts | 90° |
| 2026-05-08 07:28 | 40.65127 | -73.80004 | 23 ft | 9 kts | 92° |
| 2026-05-08 07:28 | 40.65148 | -73.79915 | 24 ft | 12 kts | 63° |
| 2026-05-08 07:29 | 40.65161 | -73.79816 | 27 ft | 11 kts | 117° |
| 2026-05-08 07:29 | 40.65103 | -73.79765 | 26 ft | 10 kts | 167° |
| 2026-05-08 07:29 | 40.65030 | -73.79793 | 24 ft | 12 kts | 199° |
| 2026-05-08 07:29 | 40.64942 | -73.79806 | 25 ft | 14 kts | 181° |
| 2026-05-08 07:30 | 40.64840 | -73.79808 | 25 ft | 16 kts | 181° |
| 2026-05-08 07:30 | 40.64730 | -73.79770 | 26 ft | 17 kts | 150° |
| 2026-05-08 07:30 | 40.64630 | -73.79678 | 25 ft | 18 kts | 144° |
| 2026-05-08 07:30 | 40.64523 | -73.79604 | 25 ft | 17 kts | 169° |
| 2026-05-08 07:31 | 40.64411 | -73.79592 | 25 ft | 15 kts | 179° |
| 2026-05-08 07:31 | 40.64308 | -73.79597 | 25 ft | 13 kts | 185° |
| 2026-05-08 07:31 | 40.64211 | -73.79607 | 24 ft | 16 kts | 185° |
| 2026-05-08 07:31 | 40.64096 | -73.79601 | 28 ft | 18 kts | 169° |
| 2026-05-08 07:32 | 40.63991 | -73.79520 | 27 ft | 17 kts | 131° |
| 2026-05-08 07:32 | 40.63933 | -73.79398 | 28 ft | 15 kts | 121° |
| 2026-05-08 07:32 | 40.63877 | -73.79276 | 27 ft | 16 kts | 121° |
| 2026-05-08 07:32 | 40.63820 | -73.79149 | 26 ft | 17 kts | 121° |
| 2026-05-08 07:33 | 40.63759 | -73.79016 | 25 ft | 17 kts | 120° |
| 2026-05-08 07:33 | 40.63696 | -73.78875 | 29 ft | 19 kts | 121° |
| 2026-05-08 07:33 | 40.63625 | -73.78721 | 27 ft | 21 kts | 121° |
| 2026-05-08 07:33 | 40.63549 | -73.78553 | 29 ft | 21 kts | 121° |
| 2026-05-08 07:34 | 40.63476 | -73.78392 | 27 ft | 20 kts | 121° |
| 2026-05-08 07:34 | 40.63408 | -73.78242 | 29 ft | 18 kts | 121° |
| 2026-05-08 07:34 | 40.63347 | -73.78103 | 27 ft | 16 kts | 110° |
| 2026-05-08 07:34 | 40.63317 | -73.78005 | 28 ft | 9 kts | 137° |
| 2026-05-08 07:35 | 40.63264 | -73.77999 | 26 ft | 8 kts | 191° |
| 2026-05-08 07:35 | 40.63212 | -73.78024 | 27 ft | 7 kts | 221° |
| 2026-05-08 07:35 | 40.63209 | -73.78073 | 27 ft | 6 kts | 284° |
| 2026-05-08 07:35 | 40.63233 | -73.78132 | 29 ft | 9 kts | 300° |
| 2026-05-08 07:36 | 40.63345 | -73.78380 | 26 ft | 70 kts | 301° |
| 2026-05-08 07:36 | 40.63739 | -73.79249 | 26 ft | 145 kts | 301° |
| 2026-05-08 07:36 | 40.64331 | -73.80561 | 276 ft | 173 kts | 303° |
| 2026-05-08 07:36 | 40.64930 | -73.81897 | 1127 ft | 168 kts | 303° |
| 2026-05-08 07:37 | 40.65529 | -73.83215 | 1947 ft | 173 kts | 301° |
| 2026-05-08 07:37 | 40.65947 | -73.84839 | 2177 ft | 199 kts | 276° |
| 2026-05-08 07:37 | 40.65671 | -73.86633 | 2719 ft | 208 kts | 243° |
| 2026-05-08 07:37 | 40.64609 | -73.87898 | 3295 ft | 212 kts | 205° |
| 2026-05-08 07:38 | 40.63165 | -73.88352 | 3844 ft | 221 kts | 191° |
| 2026-05-08 07:38 | 40.61646 | -73.88586 | 4671 ft | 220 kts | 189° |
| 2026-05-08 07:38 | 40.60149 | -73.88975 | 5339 ft | 222 kts | 204° |
| 2026-05-08 07:38 | 40.58807 | -73.90105 | 5515 ft | 239 kts | 227° |
| 2026-05-08 07:39 | 40.57645 | -73.91778 | 5673 ft | 260 kts | 231° |
| 2026-05-08 07:39 | 40.56446 | -73.93652 | 6282 ft | 269 kts | 232° |
| 2026-05-08 07:39 | 40.55238 | -73.95553 | 7194 ft | 270 kts | 232° |
| 2026-05-08 07:39 | 40.54027 | -73.97455 | 8074 ft | 272 kts | 233° |
| 2026-05-08 07:40 | 40.52808 | -73.99367 | 8948 ft | 273 kts | 233° |
| 2026-05-08 07:40 | 40.51599 | -74.01258 | 9791 ft | 275 kts | 233° |
| 2026-05-08 07:40 | 40.50347 | -74.03218 | 10275 ft | 290 kts | 233° |
| 2026-05-08 07:40 | 40.48998 | -74.05335 | 10422 ft | 315 kts | 233° |
| 2026-05-08 07:41 | 40.47543 | -74.07612 | 10749 ft | 331 kts | 233° |
| 2026-05-08 07:41 | 40.46030 | -74.09965 | 11527 ft | 334 kts | 233° |
| 2026-05-08 07:41 | 40.44545 | -74.12270 | 12304 ft | 337 kts | 233° |
| 2026-05-08 07:41 | 40.43026 | -74.14626 | 13036 ft | 340 kts | 233° |
| 2026-05-08 07:42 | 40.41493 | -74.17002 | 13771 ft | 342 kts | 233° |
| 2026-05-08 07:42 | 40.39949 | -74.19395 | 14428 ft | 344 kts | 234° |
| 2026-05-08 07:42 | 40.38402 | -74.21791 | 15111 ft | 345 kts | 234° |
| 2026-05-08 07:42 | 40.36851 | -74.24192 | 15792 ft | 346 kts | 234° |
| 2026-05-08 07:43 | 40.35290 | -74.26608 | 16419 ft | 347 kts | 234° |
| 2026-05-08 07:43 | 40.33723 | -74.29033 | 17071 ft | 349 kts | 234° |
| 2026-05-08 07:43 | 40.32151 | -74.31461 | 17686 ft | 350 kts | 235° |
| 2026-05-08 07:43 | 40.30569 | -74.33905 | 18277 ft | 352 kts | 235° |
| 2026-05-08 07:44 | 40.29000 | -74.36325 | 18811 ft | 352 kts | 235° |
| 2026-05-08 07:44 | 40.27393 | -74.38802 | 19360 ft | 352 kts | 235° |
| 2026-05-08 07:44 | 40.25807 | -74.41244 | 19897 ft | 352 kts | 235° |
| 2026-05-08 07:44 | 40.24218 | -74.43689 | 20442 ft | 352 kts | 235° |
| 2026-05-08 07:45 | 40.22648 | -74.46104 | 20965 ft | 352 kts | 236° |
| 2026-05-08 07:45 | 40.21165 | -74.48633 | 21514 ft | 348 kts | 243° |
| 2026-05-08 07:45 | 40.20139 | -74.51454 | 22077 ft | 342 kts | 255° |
| 2026-05-08 07:45 | 40.19659 | -74.54489 | 22614 ft | 341 kts | 262° |
| 2026-05-08 07:46 | 40.19410 | -74.57586 | 23171 ft | 342 kts | 264° |
| 2026-05-08 07:46 | 40.19218 | -74.60691 | 23697 ft | 343 kts | 265° |
| 2026-05-08 07:46 | 40.19024 | -74.63799 | 24164 ft | 344 kts | 265° |
| 2026-05-08 07:46 | 40.18814 | -74.66941 | 24612 ft | 346 kts | 264° |
| 2026-05-08 07:47 | 40.18590 | -74.70092 | 25068 ft | 348 kts | 264° |
| 2026-05-08 07:47 | 40.18356 | -74.73243 | 25515 ft | 350 kts | 264° |
| 2026-05-08 07:47 | 40.18114 | -74.76418 | 25948 ft | 352 kts | 264° |
| 2026-05-08 07:47 | 40.17866 | -74.79612 | 26402 ft | 354 kts | 265° |
| 2026-05-08 07:48 | 40.17614 | -74.82825 | 26825 ft | 356 kts | 265° |
| 2026-05-08 07:48 | 40.17359 | -74.86049 | 27256 ft | 358 kts | 265° |
| 2026-05-08 07:48 | 40.17100 | -74.89305 | 27678 ft | 360 kts | 265° |
| 2026-05-08 07:48 | 40.16840 | -74.92567 | 28097 ft | 362 kts | 265° |
| 2026-05-08 07:49 | 40.16580 | -74.95811 | 28516 ft | 364 kts | 265° |
| 2026-05-08 07:49 | 40.16314 | -74.99113 | 28919 ft | 366 kts | 265° |
| 2026-05-08 07:49 | 40.16046 | -75.02430 | 29332 ft | 368 kts | 265° |
| 2026-05-08 07:49 | 40.15776 | -75.05769 | 29791 ft | 368 kts | 265° |
| 2026-05-08 07:50 | 40.15505 | -75.09084 | 30266 ft | 367 kts | 265° |
| 2026-05-08 07:50 | 40.15234 | -75.12406 | 30626 ft | 367 kts | 265° |
| 2026-05-08 07:50 | 40.14962 | -75.15724 | 31024 ft | 367 kts | 265° |
| 2026-05-08 07:50 | 40.14689 | -75.19044 | 31384 ft | 367 kts | 265° |
| 2026-05-08 07:51 | 40.14415 | -75.22363 | 31763 ft | 367 kts | 265° |
| 2026-05-08 07:51 | 40.14230 | -75.24602 | 31902 ft | 369 kts | 265° |
| 2026-05-08 07:51 | 40.13952 | -75.27953 | 31953 ft | 372 kts | 265° |
| 2026-05-08 07:52 | 40.13017 | -75.34662 | 31965 ft | 378 kts | 256° |
| 2026-05-08 07:52 | 40.10673 | -75.40903 | 31969 ft | 391 kts | 241° |
| 2026-05-08 07:53 | 40.07046 | -75.46327 | 31969 ft | 400 kts | 235° |
| 2026-05-08 07:53 | 40.03166 | -75.51539 | 31968 ft | 400 kts | 235° |
| 2026-05-08 07:54 | 39.99319 | -75.56788 | 31974 ft | 400 kts | 235° |
| 2026-05-08 07:54 | 39.95523 | -75.62040 | 31974 ft | 400 kts | 235° |
| 2026-05-08 07:55 | 39.91719 | -75.67343 | 31972 ft | 400 kts | 237° |
| 2026-05-08 07:55 | 39.88148 | -75.72848 | 31963 ft | 397 kts | 239° |
| 2026-05-08 07:56 | 39.84684 | -75.78443 | 31960 ft | 397 kts | 239° |
| 2026-05-08 07:56 | 39.81211 | -75.84027 | 31963 ft | 398 kts | 239° |
| 2026-05-08 07:57 | 39.77714 | -75.89611 | 31959 ft | 398 kts | 239° |
| 2026-05-08 07:57 | 39.74215 | -75.95182 | 31958 ft | 398 kts | 239° |
| 2026-05-08 07:58 | 39.70714 | -76.00745 | 31956 ft | 398 kts | 239° |
| 2026-05-08 07:58 | 39.67213 | -76.06301 | 31953 ft | 397 kts | 239° |
| 2026-05-08 07:59 | 39.63708 | -76.11853 | 31955 ft | 397 kts | 239° |
| 2026-05-08 07:59 | 39.60195 | -76.17395 | 31965 ft | 398 kts | 238° |
| 2026-05-08 08:00 | 39.56646 | -76.22889 | 31974 ft | 398 kts | 238° |
| 2026-05-08 08:00 | 39.53087 | -76.28372 | 31982 ft | 397 kts | 238° |
| 2026-05-08 08:01 | 39.49537 | -76.33844 | 31986 ft | 396 kts | 238° |
| 2026-05-08 08:01 | 39.45819 | -76.39162 | 32005 ft | 400 kts | 235° |
| 2026-05-08 08:02 | 39.41911 | -76.44295 | 32009 ft | 400 kts | 234° |
| 2026-05-08 08:02 | 39.38020 | -76.49372 | 32014 ft | 399 kts | 234° |
| 2026-05-08 08:03 | 39.34120 | -76.54476 | 32010 ft | 398 kts | 235° |
| 2026-05-08 08:03 | 39.30225 | -76.59578 | 31996 ft | 398 kts | 235° |
| 2026-05-08 08:04 | 39.26346 | -76.64653 | 31987 ft | 396 kts | 235° |
| 2026-05-08 08:04 | 39.22476 | -76.69708 | 31992 ft | 396 kts | 235° |
| 2026-05-08 08:05 | 39.18626 | -76.74730 | 31985 ft | 395 kts | 235° |
| 2026-05-08 08:05 | 39.14736 | -76.79796 | 32014 ft | 394 kts | 235° |
| 2026-05-08 08:06 | 39.10900 | -76.84781 | 32014 ft | 394 kts | 235° |
| 2026-05-08 08:06 | 39.07045 | -76.89783 | 32018 ft | 393 kts | 235° |
| 2026-05-08 08:07 | 39.03196 | -76.94769 | 32011 ft | 392 kts | 235° |
| 2026-05-08 08:07 | 38.99356 | -76.99726 | 32014 ft | 391 kts | 235° |
| 2026-05-08 08:08 | 38.95515 | -77.04646 | 32011 ft | 390 kts | 235° |
| 2026-05-08 08:08 | 38.91676 | -77.09571 | 32005 ft | 389 kts | 235° |
| 2026-05-08 08:09 | 38.87867 | -77.14460 | 32003 ft | 389 kts | 235° |
| 2026-05-08 08:09 | 38.84037 | -77.19373 | 32003 ft | 388 kts | 235° |
| 2026-05-08 08:10 | 38.80218 | -77.24264 | 31985 ft | 388 kts | 235° |
| 2026-05-08 08:10 | 38.76393 | -77.29154 | 31987 ft | 388 kts | 235° |
| 2026-05-08 08:11 | 38.72540 | -77.33998 | 31985 ft | 389 kts | 234° |
| 2026-05-08 08:11 | 38.68525 | -77.38698 | 32022 ft | 391 kts | 233° |
| 2026-05-08 08:12 | 38.64517 | -77.43324 | 32024 ft | 390 kts | 233° |
| 2026-05-08 08:12 | 38.60486 | -77.47984 | 32017 ft | 390 kts | 233° |
| 2026-05-08 08:13 | 38.56459 | -77.52642 | 32015 ft | 390 kts | 233° |
| 2026-05-08 08:13 | 38.52439 | -77.57289 | 32019 ft | 390 kts | 233° |
| 2026-05-08 08:14 | 38.48412 | -77.61937 | 32021 ft | 390 kts | 233° |
| 2026-05-08 08:14 | 38.44412 | -77.66547 | 32020 ft | 390 kts | 233° |
| 2026-05-08 08:15 | 38.40382 | -77.71184 | 32023 ft | 390 kts | 233° |
| 2026-05-08 08:15 | 38.36350 | -77.75816 | 32022 ft | 390 kts | 233° |
| 2026-05-08 08:16 | 38.32316 | -77.80444 | 32018 ft | 390 kts | 233° |
| 2026-05-08 08:16 | 38.28275 | -77.85072 | 32009 ft | 390 kts | 233° |
| 2026-05-08 08:17 | 38.24228 | -77.89699 | 32008 ft | 390 kts | 233° |
| 2026-05-08 08:17 | 38.20210 | -77.94285 | 32009 ft | 390 kts | 233° |
| 2026-05-08 08:18 | 38.16166 | -77.98894 | 32011 ft | 390 kts | 233° |
| 2026-05-08 08:18 | 38.12118 | -78.03500 | 32022 ft | 390 kts | 233° |
| 2026-05-08 08:19 | 38.08059 | -78.08081 | 32023 ft | 391 kts | 233° |
| 2026-05-08 08:19 | 38.04002 | -78.12662 | 32021 ft | 391 kts | 233° |
| 2026-05-08 08:20 | 37.99946 | -78.17256 | 32016 ft | 389 kts | 234° |
| 2026-05-08 08:20 | 37.96263 | -78.22165 | 32016 ft | 381 kts | 239° |
| 2026-05-08 08:21 | 37.92828 | -78.27219 | 32013 ft | 380 kts | 240° |
| 2026-05-08 08:21 | 37.89381 | -78.32300 | 32005 ft | 380 kts | 239° |
| 2026-05-08 08:22 | 37.85913 | -78.37370 | 32007 ft | 381 kts | 239° |
| 2026-05-08 08:22 | 37.82433 | -78.42434 | 32009 ft | 381 kts | 239° |
| 2026-05-08 08:23 | 37.78954 | -78.47485 | 32009 ft | 381 kts | 239° |
| 2026-05-08 08:23 | 37.75471 | -78.52533 | 32003 ft | 381 kts | 239° |
| 2026-05-08 08:24 | 37.71989 | -78.57574 | 32011 ft | 380 kts | 239° |
| 2026-05-08 08:24 | 37.68505 | -78.62607 | 32013 ft | 381 kts | 239° |
| 2026-05-08 08:25 | 37.65017 | -78.67640 | 32012 ft | 380 kts | 239° |
| 2026-05-08 08:25 | 37.61548 | -78.72636 | 32016 ft | 380 kts | 239° |
| 2026-05-08 08:26 | 37.58058 | -78.77656 | 32019 ft | 380 kts | 239° |
| 2026-05-08 08:26 | 37.54568 | -78.82668 | 32020 ft | 380 kts | 239° |
| 2026-05-08 08:27 | 37.51074 | -78.87677 | 32023 ft | 380 kts | 239° |
| 2026-05-08 08:27 | 37.47582 | -78.92677 | 32026 ft | 380 kts | 239° |
| 2026-05-08 08:28 | 37.44084 | -78.97672 | 32029 ft | 380 kts | 239° |
| 2026-05-08 08:28 | 37.40571 | -79.02645 | 32030 ft | 380 kts | 239° |
| 2026-05-08 08:29 | 37.37062 | -79.07623 | 32035 ft | 380 kts | 239° |
| 2026-05-08 08:29 | 37.33579 | -79.12571 | 32033 ft | 379 kts | 239° |
| 2026-05-08 08:30 | 37.29947 | -79.17434 | 32031 ft | 383 kts | 237° |
| 2026-05-08 08:30 | 37.24335 | -79.24573 | 32033 ft | 383 kts | 237° |
| 2026-05-08 08:31 | 37.20598 | -79.29321 | 32032 ft | 382 kts | 237° |
| 2026-05-08 08:31 | 37.16867 | -79.34067 | 32030 ft | 382 kts | 237° |
| 2026-05-08 08:32 | 37.13136 | -79.38808 | 32030 ft | 381 kts | 237° |
| 2026-05-08 08:32 | 37.10039 | -79.42739 | 32032 ft | 381 kts | 237° |
| 2026-05-08 08:33 | 37.05683 | -79.48260 | 32045 ft | 381 kts | 237° |
| 2026-05-08 08:33 | 37.02580 | -79.52187 | 32034 ft | 381 kts | 237° |
| 2026-05-08 08:34 | 36.98243 | -79.57669 | 32039 ft | 381 kts | 237° |
| 2026-05-08 08:34 | 36.95122 | -79.61606 | 32030 ft | 380 kts | 237° |
| 2026-05-08 08:35 | 36.91395 | -79.66302 | 32028 ft | 380 kts | 237° |
| 2026-05-08 08:35 | 36.87670 | -79.70988 | 32033 ft | 380 kts | 237° |
| 2026-05-08 08:36 | 36.83948 | -79.75664 | 32047 ft | 380 kts | 237° |
| 2026-05-08 08:36 | 36.80221 | -79.80341 | 32060 ft | 380 kts | 237° |
| 2026-05-08 08:37 | 36.76495 | -79.85008 | 32070 ft | 379 kts | 237° |
| 2026-05-08 08:37 | 36.72785 | -79.89635 | 32076 ft | 380 kts | 237° |
| 2026-05-08 08:38 | 36.69038 | -79.94282 | 32086 ft | 379 kts | 237° |
| 2026-05-08 08:38 | 36.65301 | -79.98927 | 32086 ft | 379 kts | 237° |
| 2026-05-08 08:39 | 36.61571 | -80.03570 | 32090 ft | 379 kts | 237° |
| 2026-05-08 08:39 | 36.57833 | -80.08218 | 32086 ft | 380 kts | 236° |
| 2026-05-08 08:40 | 36.54090 | -80.12865 | 32078 ft | 380 kts | 236° |
| 2026-05-08 08:40 | 36.50340 | -80.17515 | 32067 ft | 380 kts | 236° |
| 2026-05-08 08:41 | 36.46589 | -80.22158 | 32053 ft | 381 kts | 236° |
| 2026-05-08 08:41 | 36.42854 | -80.26776 | 32052 ft | 381 kts | 236° |
| 2026-05-08 08:42 | 36.39093 | -80.31420 | 32053 ft | 381 kts | 236° |
| 2026-05-08 08:42 | 36.35327 | -80.36062 | 32050 ft | 381 kts | 236° |
| 2026-05-08 08:43 | 36.31557 | -80.40702 | 32050 ft | 381 kts | 236° |
| 2026-05-08 08:43 | 36.27785 | -80.45332 | 32052 ft | 382 kts | 235° |
| 2026-05-08 08:44 | 36.23659 | -80.49648 | 32045 ft | 392 kts | 230° |
| 2026-05-08 08:44 | 36.19316 | -80.53752 | 32030 ft | 393 kts | 230° |
| 2026-05-08 08:45 | 36.14987 | -80.57833 | 32026 ft | 393 kts | 230° |
| 2026-05-08 08:45 | 36.10645 | -80.61954 | 32012 ft | 393 kts | 230° |
| 2026-05-08 08:46 | 36.06303 | -80.66083 | 32009 ft | 394 kts | 230° |
| 2026-05-08 08:46 | 36.01961 | -80.70208 | 32013 ft | 394 kts | 230° |
| 2026-05-08 08:47 | 35.97613 | -80.74335 | 32027 ft | 394 kts | 230° |
| 2026-05-08 08:47 | 35.93261 | -80.78458 | 32047 ft | 394 kts | 230° |
| 2026-05-08 08:48 | 35.88929 | -80.82557 | 32058 ft | 395 kts | 230° |
| 2026-05-08 08:48 | 35.84540 | -80.86703 | 32069 ft | 395 kts | 229° |
| 2026-05-08 08:49 | 35.80200 | -80.90798 | 32070 ft | 396 kts | 229° |
| 2026-05-08 08:49 | 35.75823 | -80.94922 | 32067 ft | 396 kts | 229° |
| 2026-05-08 08:50 | 35.71442 | -80.99043 | 32071 ft | 397 kts | 229° |
| 2026-05-08 08:50 | 35.67054 | -81.03165 | 32063 ft | 397 kts | 229° |
| 2026-05-08 08:51 | 35.62661 | -81.07286 | 32047 ft | 397 kts | 229° |
| 2026-05-08 08:51 | 35.58258 | -81.11394 | 32056 ft | 398 kts | 229° |
| 2026-05-08 08:52 | 35.53840 | -81.15504 | 32061 ft | 398 kts | 229° |
| 2026-05-08 08:52 | 35.49446 | -81.19602 | 32059 ft | 399 kts | 229° |
| 2026-05-08 08:53 | 35.45028 | -81.23721 | 32064 ft | 399 kts | 229° |
| 2026-05-08 08:53 | 35.40597 | -81.27848 | 32059 ft | 400 kts | 229° |
| 2026-05-08 08:54 | 35.36165 | -81.31970 | 32048 ft | 400 kts | 229° |
| 2026-05-08 08:54 | 35.31730 | -81.36090 | 32048 ft | 400 kts | 228° |
| 2026-05-08 08:55 | 35.27280 | -81.40218 | 32052 ft | 401 kts | 228° |
| 2026-05-08 08:55 | 35.22859 | -81.44313 | 32056 ft | 401 kts | 228° |
| 2026-05-08 08:56 | 35.18398 | -81.48439 | 32058 ft | 402 kts | 228° |
| 2026-05-08 08:56 | 35.13926 | -81.52568 | 32056 ft | 402 kts | 228° |
| 2026-05-08 08:57 | 35.09454 | -81.56693 | 32054 ft | 403 kts | 228° |
| 2026-05-08 08:57 | 35.04972 | -81.60821 | 32049 ft | 403 kts | 228° |
| 2026-05-08 08:58 | 35.01125 | -81.65490 | 32046 ft | 385 kts | 241° |
| 2026-05-08 08:58 | 34.98148 | -81.70870 | 32044 ft | 382 kts | 244° |
| 2026-05-08 08:59 | 34.95243 | -81.76322 | 32047 ft | 383 kts | 244° |
| 2026-05-08 08:59 | 34.92297 | -81.81734 | 32050 ft | 383 kts | 243° |
| 2026-05-08 09:00 | 34.89317 | -81.87141 | 32052 ft | 384 kts | 243° |
| 2026-05-08 09:00 | 34.86328 | -81.92538 | 32052 ft | 384 kts | 243° |
| 2026-05-08 09:01 | 34.83337 | -81.97927 | 32050 ft | 384 kts | 243° |
| 2026-05-08 09:01 | 34.80337 | -82.03325 | 32046 ft | 385 kts | 243° |
| 2026-05-08 09:02 | 34.77336 | -82.08716 | 32045 ft | 385 kts | 243° |
| 2026-05-08 09:02 | 34.74347 | -82.14078 | 32042 ft | 385 kts | 243° |
| 2026-05-08 09:03 | 34.71336 | -82.19469 | 32043 ft | 386 kts | 243° |
| 2026-05-08 09:03 | 34.68319 | -82.24864 | 32048 ft | 385 kts | 243° |
| 2026-05-08 09:04 | 34.65305 | -82.30245 | 32054 ft | 385 kts | 243° |
| 2026-05-08 09:04 | 34.62285 | -82.35630 | 32049 ft | 386 kts | 243° |
| 2026-05-08 09:05 | 34.59262 | -82.41011 | 32044 ft | 386 kts | 243° |
| 2026-05-08 09:05 | 34.56229 | -82.46402 | 32036 ft | 386 kts | 243° |
| 2026-05-08 09:06 | 34.53176 | -82.51781 | 32053 ft | 387 kts | 242° |
| 2026-05-08 09:06 | 34.50140 | -82.57129 | 32039 ft | 387 kts | 242° |
| 2026-05-08 09:07 | 34.47084 | -82.62525 | 32050 ft | 388 kts | 242° |
| 2026-05-08 09:07 | 34.44030 | -82.67918 | 32053 ft | 388 kts | 242° |
| 2026-05-08 09:08 | 34.40967 | -82.73320 | 32050 ft | 389 kts | 242° |
| 2026-05-08 09:08 | 34.37905 | -82.78713 | 32048 ft | 389 kts | 242° |
| 2026-05-08 09:09 | 34.34834 | -82.84108 | 32043 ft | 389 kts | 242° |
| 2026-05-08 09:09 | 34.31754 | -82.89467 | 32038 ft | 390 kts | 242° |
| 2026-05-08 09:10 | 34.28657 | -82.94850 | 32037 ft | 390 kts | 242° |
| 2026-05-08 09:10 | 34.25558 | -83.00236 | 32039 ft | 390 kts | 242° |
| 2026-05-08 09:11 | 34.22460 | -83.05616 | 32039 ft | 390 kts | 242° |
| 2026-05-08 09:11 | 34.19357 | -83.10998 | 32038 ft | 390 kts | 242° |
| 2026-05-08 09:12 | 34.16248 | -83.16381 | 32029 ft | 391 kts | 242° |
| 2026-05-08 09:12 | 34.13137 | -83.21760 | 32029 ft | 391 kts | 242° |
| 2026-05-08 09:13 | 34.10023 | -83.27136 | 32032 ft | 391 kts | 242° |
| 2026-05-08 09:13 | 34.06898 | -83.32524 | 32033 ft | 391 kts | 242° |
| 2026-05-08 09:14 | 34.03770 | -83.37906 | 32035 ft | 392 kts | 242° |
| 2026-05-08 09:14 | 34.00657 | -83.43256 | 32037 ft | 392 kts | 242° |
| 2026-05-08 09:15 | 33.97520 | -83.48640 | 32035 ft | 392 kts | 242° |
| 2026-05-08 09:15 | 33.94383 | -83.54016 | 32060 ft | 392 kts | 242° |
| 2026-05-08 09:16 | 33.91245 | -83.59385 | 32060 ft | 392 kts | 242° |
| 2026-05-08 09:16 | 33.88100 | -83.64758 | 32060 ft | 393 kts | 242° |
| 2026-05-08 09:17 | 33.84949 | -83.70076 | 32058 ft | 393 kts | 241° |
| 2026-05-08 09:17 | 33.81748 | -83.75418 | 32059 ft | 393 kts | 241° |
| 2026-05-08 09:18 | 33.78543 | -83.80770 | 32033 ft | 393 kts | 241° |
| 2026-05-08 09:18 | 33.75345 | -83.86111 | 32036 ft | 394 kts | 241° |